createdAt,value
2023-11-17T00:03:30.601Z,1.20
2023-11-17T00:07:32.896Z,2.95
2023-11-17T00:11:36.139Z,2.40
2023-11-17T00:15:38.071Z,1.85
2023-11-17T00:19:39.964Z,1.80
2023-11-17T00:23:42.072Z,1.20
2023-11-17T00:27:43.899Z,1.45
2023-11-17T00:31:45.963Z,2.10
2023-11-17T00:35:48.285Z,2.47
2023-11-17T00:39:50.581Z,1.73
2023-11-17T00:43:52.886Z,1.42
2023-11-17T00:47:54.611Z,1.20
2023-11-17T00:51:57.055Z,0.98
2023-11-17T00:56:02.867Z,4.07
2023-11-17T01:00:06.075Z,1.40
2023-11-17T01:04:08.022Z,1.30
2023-11-17T01:08:09.905Z,2.20
2023-11-17T01:12:11.726Z,1.60
2023-11-17T01:16:17.349Z,1.73
2023-11-17T01:20:19.580Z,1.55
2023-11-17T01:24:22.772Z,1.70
2023-11-17T01:28:24.723Z,3.25
2023-11-17T01:32:26.815Z,1.38
2023-11-17T01:36:28.675Z,1.52
2023-11-17T01:40:32.223Z,1.67
2023-11-17T01:44:34.103Z,1.48
2023-11-17T01:48:38.785Z,1.30
2023-11-17T01:52:44.978Z,1.40
2023-11-17T01:56:48.724Z,1.20
2023-11-17T02:00:50.475Z,1.10
2023-11-17T02:04:52.460Z,1.30
2023-11-17T02:09:02.666Z,0.93
2023-11-17T02:13:21.741Z,3.67
2023-11-17T02:17:29.731Z,0.93
2023-11-17T02:21:36.147Z,0.90
2023-11-17T02:25:46.008Z,1.10
2023-11-17T02:29:49.001Z,0.80
2023-11-17T02:33:51.209Z,0.80
2023-11-17T02:37:53.857Z,0.90
2023-11-17T02:41:59.416Z,0.75
2023-11-17T02:46:02.393Z,0.70
2023-11-17T02:50:11.107Z,4.60
2023-11-17T02:54:14.553Z,0.88
2023-11-17T02:58:18.153Z,0.80
2023-11-17T03:02:20.866Z,0.80
2023-11-17T03:06:22.919Z,0.70
2023-11-17T03:10:25.430Z,1.10
2023-11-17T03:14:27.704Z,1.48
2023-11-17T03:18:31.950Z,0.70
2023-11-17T03:22:33.787Z,0.77
2023-11-17T03:26:35.535Z,0.80
2023-11-17T03:30:37.624Z,0.90
2023-11-17T03:34:42.154Z,0.80
2023-11-17T03:38:43.829Z,3.50
2023-11-17T03:42:45.522Z,0.70
2023-11-17T03:46:47.603Z,0.95
2023-11-17T03:50:52.274Z,0.70
2023-11-17T03:54:57.600Z,0.70
2023-11-17T03:58:59.378Z,0.80
2023-11-17T04:03:01.172Z,0.70
2023-11-17T04:07:03.960Z,0.80
2023-11-17T04:11:05.856Z,1.90
2023-11-17T04:15:09.902Z,1.00
2023-11-17T04:19:15.683Z,0.90
2023-11-17T04:23:18.268Z,1.67
2023-11-17T04:27:20.331Z,1.02
2023-11-17T04:31:22.301Z,3.78
2023-11-17T04:35:24.521Z,1.77
2023-11-17T04:39:26.321Z,2.30
2023-11-17T04:43:28.083Z,1.88
2023-11-17T04:47:29.945Z,1.60
2023-11-17T04:51:31.718Z,1.90
2023-11-17T04:55:33.639Z,2.95
2023-11-17T04:59:35.453Z,2.53
2023-11-17T05:03:37.254Z,2.78
2023-11-17T05:07:44.748Z,4.45
2023-11-17T05:11:46.604Z,1.88
2023-11-17T05:15:48.343Z,2.58
2023-11-17T05:19:50.869Z,2.33
2023-11-17T05:23:53.027Z,3.95
2023-11-17T05:27:54.786Z,4.65
2023-11-17T05:31:56.796Z,3.85
2023-11-17T05:35:58.925Z,3.55
2023-11-17T05:40:00.939Z,3.72
2023-11-17T05:44:04.183Z,3.65
2023-11-17T05:48:07.661Z,3.45
2023-11-17T05:52:12.913Z,2.60
2023-11-17T05:56:17.444Z,3.45
2023-11-17T06:00:20.475Z,4.13
2023-11-17T06:04:22.422Z,5.07
2023-11-17T06:08:24.278Z,2.72
2023-11-17T06:12:27.466Z,2.90
2023-11-17T06:16:29.744Z,3.83
2023-11-17T06:20:31.819Z,3.85
2023-11-17T06:24:34.153Z,4.75
2023-11-17T06:28:35.915Z,3.13
2023-11-17T06:32:37.761Z,4.65
2023-11-17T06:36:42.164Z,5.72
2023-11-17T06:40:44.722Z,3.65
2023-11-17T06:44:46.469Z,3.88
2023-11-17T06:48:48.528Z,2.72
2023-11-17T06:52:50.521Z,3.28
2023-11-17T06:56:53.157Z,4.78
2023-11-17T07:00:55.102Z,5.70
2023-11-17T07:04:56.850Z,4.22
2023-11-17T07:08:59.019Z,6.40
2023-11-17T07:13:00.848Z,4.20
2023-11-17T07:17:05.967Z,4.80
2023-11-17T07:21:07.771Z,4.63
2023-11-17T07:25:12.757Z,4.78
2023-11-17T07:29:15.240Z,6.85
2023-11-17T07:33:19.783Z,5.68
2023-11-17T07:37:24.681Z,5.07
2023-11-17T07:41:26.696Z,5.18
2023-11-17T07:45:28.426Z,5.55
2023-11-17T07:49:30.361Z,5.18
2023-11-17T07:53:32.194Z,4.63
2023-11-17T07:57:36.511Z,6.28
2023-11-17T08:01:38.984Z,5.53
2023-11-17T08:05:40.900Z,5.35
2023-11-17T08:09:44.697Z,6.75
2023-11-17T08:13:46.588Z,5.45
2023-11-17T08:17:49.053Z,5.40
2023-11-17T08:21:51.082Z,8.38
2023-11-17T08:25:53.371Z,5.65
2023-11-17T08:29:55.558Z,6.68
2023-11-17T08:33:57.309Z,6.05
2023-11-17T08:37:59.289Z,6.40
2023-11-17T08:42:01.003Z,4.88
2023-11-17T08:46:02.816Z,5.10
2023-11-17T08:50:05.516Z,5.63
2023-11-17T08:54:07.699Z,3.63
2023-11-17T08:58:10.134Z,4.95
2023-11-17T09:02:12.015Z,7.05
2023-11-17T09:06:15.483Z,4.72
2023-11-17T09:10:18.067Z,7.15
2023-11-17T09:14:20.913Z,4.35
2023-11-17T09:18:22.797Z,6.25
2023-11-17T09:22:24.947Z,5.60
2023-11-17T09:26:26.859Z,6.18
2023-11-17T09:30:29.688Z,7.90
2023-11-17T09:34:31.614Z,3.38
2023-11-17T09:38:37.436Z,4.32
2023-11-17T09:42:39.616Z,3.60
2023-11-17T09:46:46.501Z,4.72
2023-11-17T09:50:52.206Z,5.72
2023-11-17T09:54:54.408Z,4.97
2023-11-17T09:58:58.799Z,6.43
2023-11-17T10:03:02.646Z,3.85
2023-11-17T10:07:05.735Z,3.88
2023-11-17T10:11:07.676Z,3.60
2023-11-17T10:15:10.501Z,4.28
2023-11-17T10:19:16.318Z,3.65
2023-11-17T10:23:18.553Z,4.82
2023-11-17T10:27:21.485Z,4.20
2023-11-17T10:31:23.739Z,6.03
2023-11-17T10:35:25.952Z,3.78
2023-11-17T10:39:28.167Z,3.88
2023-11-17T10:43:29.878Z,5.03
2023-11-17T10:47:33.670Z,4.78
2023-11-17T10:51:47.291Z,4.03
2023-11-17T10:55:49.851Z,5.30
2023-11-17T10:59:56.374Z,3.70
2023-11-17T11:04:00.876Z,2.40
2023-11-17T11:08:07.303Z,2.55
2023-11-17T11:12:13.213Z,3.60
2023-11-17T11:16:15.062Z,2.75
2023-11-17T11:20:23.233Z,1.95
2023-11-17T11:24:33.542Z,2.15
2023-11-17T11:28:40.455Z,2.65
2023-11-17T11:32:44.075Z,3.33
2023-11-17T11:36:48.896Z,2.45
2023-11-17T11:40:53.220Z,1.80
2023-11-17T11:44:55.115Z,2.15
2023-11-17T11:48:58.585Z,2.20
2023-11-17T11:53:09.409Z,2.22
2023-11-17T11:57:23.515Z,1.77
2023-11-17T12:01:25.514Z,1.90
2023-11-17T12:05:31.950Z,1.98
2023-11-17T12:09:35.708Z,1.60
2023-11-17T12:13:49.640Z,1.60
2023-11-17T12:17:59.282Z,2.42
2023-11-17T12:22:02.453Z,1.52
2023-11-17T12:26:06.459Z,1.67
2023-11-17T12:30:14.302Z,2.30
2023-11-17T12:34:16.201Z,2.22
2023-11-17T12:38:18.093Z,1.50
2023-11-17T12:42:20.941Z,1.20
2023-11-17T12:46:26.784Z,2.15
2023-11-17T12:50:41.876Z,1.33
2023-11-17T12:54:44.409Z,1.50
2023-11-17T12:58:46.293Z,1.50
2023-11-17T13:02:49.529Z,2.85
2023-11-17T13:06:51.637Z,2.63
2023-11-17T13:10:54.748Z,3.00
2023-11-17T13:14:59.209Z,1.50
2023-11-17T13:19:02.384Z,2.35
2023-11-17T13:23:04.250Z,2.65
2023-11-17T13:27:08.377Z,3.30
2023-11-17T13:31:21.971Z,3.85
2023-11-17T13:35:29.206Z,1.30
2023-11-17T13:39:34.818Z,3.13
2023-11-17T13:43:37.402Z,1.50
2023-11-17T13:47:39.365Z,2.58
2023-11-17T13:51:45.621Z,1.63
2023-11-17T13:55:48.309Z,2.00
2023-11-17T13:59:51.133Z,2.38
2023-11-17T14:03:53.829Z,2.25
2023-11-17T14:07:56.255Z,2.42
2023-11-17T14:11:59.103Z,1.67
2023-11-17T14:16:01.153Z,1.30
2023-11-17T14:20:09.191Z,2.25
2023-11-17T14:24:10.956Z,1.80
2023-11-17T14:28:16.703Z,2.40
2023-11-17T14:32:21.044Z,1.13
2023-11-17T14:36:23.311Z,1.25
2023-11-17T14:40:26.662Z,1.77
2023-11-17T14:44:28.935Z,3.00
2023-11-17T14:48:31.370Z,1.30
2023-11-17T14:52:33.896Z,1.20
2023-11-17T14:56:35.838Z,3.33
2023-11-17T15:00:42.764Z,2.10
2023-11-17T15:04:44.569Z,2.83
2023-11-17T15:08:47.571Z,3.13
2023-11-17T15:12:49.921Z,1.98
2023-11-17T15:16:53.213Z,3.22
2023-11-17T15:20:57.412Z,3.30
2023-11-17T15:24:59.398Z,2.63
2023-11-17T15:29:01.163Z,3.42
2023-11-17T15:33:02.956Z,2.65
2023-11-17T15:37:10.137Z,3.35
2023-11-17T15:41:13.372Z,1.90
2023-11-17T15:45:15.929Z,3.83
2023-11-17T15:49:18.137Z,4.93
2023-11-17T15:53:20.104Z,3.90
2023-11-17T15:57:21.816Z,4.35
2023-11-17T16:01:25.475Z,4.82
2023-11-17T16:05:27.292Z,2.97
2023-11-17T16:09:29.973Z,3.90
2023-11-17T16:13:31.950Z,5.50
2023-11-17T16:17:33.942Z,4.22
2023-11-17T16:21:36.523Z,6.10
2023-11-17T16:25:38.987Z,5.25
2023-11-17T16:29:41.644Z,9.23
2023-11-17T16:33:46.673Z,29.45
2023-11-17T16:37:49.004Z,8.52
2023-11-17T16:41:52.260Z,9.85
2023-11-17T16:45:54.776Z,6.70
2023-11-17T16:49:56.625Z,5.88
2023-11-17T16:53:59.607Z,5.72
2023-11-17T16:58:01.400Z,6.88
2023-11-17T17:02:03.226Z,8.05
2023-11-17T17:06:05.374Z,11.43
2023-11-17T17:10:07.414Z,9.27
2023-11-17T17:14:17.407Z,5.15
2023-11-17T17:18:22.584Z,6.80
2023-11-17T17:22:24.470Z,4.93
2023-11-17T17:26:26.189Z,3.65
2023-11-17T17:30:28.021Z,2.88
2023-11-17T17:34:30.059Z,2.53
2023-11-17T17:38:37.436Z,5.63
2023-11-17T17:42:41.923Z,5.68
2023-11-17T17:46:44.486Z,4.00
2023-11-17T17:50:46.208Z,4.28
2023-11-17T17:54:47.956Z,3.10
2023-11-17T17:58:51.519Z,3.72
2023-11-17T18:02:59.257Z,3.80
2023-11-17T18:07:02.506Z,4.05
2023-11-17T18:11:04.776Z,5.25
2023-11-17T18:15:10.567Z,6.63
2023-11-17T18:19:13.705Z,7.95
2023-11-17T18:23:15.531Z,6.03
2023-11-17T18:27:18.514Z,7.22
2023-11-17T18:31:20.533Z,7.45
2023-11-17T18:35:26.027Z,4.63
2023-11-17T18:39:27.800Z,4.18
2023-11-17T18:43:29.625Z,5.60
2023-11-17T18:47:31.636Z,3.55
2023-11-17T18:51:33.841Z,2.83
2023-11-17T18:55:36.923Z,4.38
2023-11-17T18:59:38.717Z,2.72
2023-11-17T19:03:40.517Z,2.53
2023-11-17T19:07:46.332Z,2.38
2023-11-17T19:11:48.202Z,3.97
2023-11-17T19:15:49.899Z,3.40
2023-11-17T19:19:52.649Z,5.15
2023-11-17T19:23:54.448Z,3.35
2023-11-17T19:27:56.129Z,3.95
2023-11-17T19:31:57.925Z,5.75
2023-11-17T19:36:04.507Z,4.10
2023-11-17T19:40:12.993Z,4.70
2023-11-17T19:44:16.044Z,2.92
2023-11-17T19:48:18.569Z,4.82
2023-11-17T19:52:20.362Z,3.53
2023-11-17T19:56:22.176Z,4.28
2023-11-17T20:00:25.484Z,3.17
2023-11-17T20:04:27.767Z,4.65
2023-11-17T20:08:29.527Z,4.70
2023-11-17T20:12:31.814Z,5.65
2023-11-17T20:16:34.891Z,3.05
2023-11-17T20:20:37.222Z,3.53
2023-11-17T20:24:39.179Z,3.63
2023-11-17T20:28:41.149Z,6.45
2023-11-17T20:32:46.323Z,6.97
2023-11-17T20:36:48.526Z,4.95
2023-11-17T20:40:50.312Z,7.35
2023-11-17T20:44:52.277Z,4.88
2023-11-17T20:48:57.507Z,3.80
2023-11-17T20:53:00.248Z,5.35
2023-11-17T20:57:04.362Z,3.22
2023-11-17T21:01:08.836Z,5.40
2023-11-17T21:05:12.197Z,3.90
2023-11-17T21:09:20.872Z,3.03
2023-11-17T21:13:22.674Z,5.00
2023-11-17T21:17:24.442Z,3.60
2023-11-17T21:21:26.248Z,4.97
2023-11-17T21:25:30.667Z,4.57
2023-11-17T21:29:32.422Z,4.50
2023-11-17T21:33:34.961Z,6.63
2023-11-17T21:37:38.709Z,4.43
2023-11-17T21:41:40.428Z,4.10
2023-11-17T21:45:42.322Z,4.07
2023-11-17T21:49:44.358Z,3.90
2023-11-17T21:53:46.076Z,4.40
2023-11-17T21:57:48.014Z,4.68
2023-11-17T22:01:49.974Z,5.70
2023-11-17T22:05:51.733Z,5.18
2023-11-17T22:09:53.555Z,5.18
2023-11-17T22:13:55.296Z,8.27
2023-11-17T22:17:57.290Z,6.70
2023-11-17T22:21:59.011Z,3.97
2023-11-17T22:26:01.157Z,3.72
2023-11-17T22:30:02.939Z,3.92
2023-11-17T22:34:07.364Z,5.07
2023-11-17T22:38:09.072Z,5.03
2023-11-17T22:42:10.755Z,6.50
2023-11-17T22:46:18.618Z,3.90
2023-11-17T22:50:20.981Z,3.53
2023-11-17T22:54:22.613Z,3.92
2023-11-17T22:58:24.329Z,4.82
2023-11-17T23:02:26.728Z,2.50
2023-11-17T23:06:28.610Z,2.88
2023-11-17T23:10:31.686Z,3.95
2023-11-17T23:14:33.643Z,5.60
2023-11-17T23:18:36.416Z,4.53
2023-11-17T23:22:38.661Z,4.30
2023-11-17T23:26:40.802Z,3.53
2023-11-17T23:30:42.676Z,4.88
2023-11-17T23:34:44.497Z,4.97
2023-11-17T23:38:47.057Z,3.38
2023-11-17T23:42:49.514Z,4.05
2023-11-17T23:46:51.825Z,2.47
2023-11-17T23:50:55.225Z,7.03
2023-11-17T23:54:56.866Z,2.90
2023-11-17T23:59:00.025Z,7.22
